Login to view Products
 
Saturday, August 08, 2020 (09:23 UTC)
Fujairah International Airport
ICAO: OMFJ
IATA: FJR
  • METAR OMFJ 080900Z 09009KT 060V130 5000 HZ SCT018 35/29 Q0995 A2938=
  • TAF OMFJ 080500Z 0806/0912 10010KT 7000 FEW025 PROB30 0808/0812 29012G22KT BECMG 0814/0816 16006KT BECMG 0820/0822 VRB03KT=
D:\Input Parser\Destinations\Final\05\OMFJL06120500223898965.txt
1